sensor_id;sensor_type;location;lat;lon;timestamp;temperature;humidity
76897;SHT30;65856;52.178;21.176;2023-04-01T00:01:38;10.94;83.30
76897;SHT30;65856;52.178;21.176;2023-04-01T00:04:08;10.94;83.31
76897;SHT30;65856;52.178;21.176;2023-04-01T00:06:39;10.92;83.30
76897;SHT30;65856;52.178;21.176;2023-04-01T00:09:10;10.92;83.30
76897;SHT30;65856;52.178;21.176;2023-04-01T00:11:40;10.93;83.30
76897;SHT30;65856;52.178;21.176;2023-04-01T00:14:12;10.94;83.21
76897;SHT30;65856;52.178;21.176;2023-04-01T00:16:42;10.95;83.22
76897;SHT30;65856;52.178;21.176;2023-04-01T00:19:13;10.96;83.20
76897;SHT30;65856;52.178;21.176;2023-04-01T00:21:44;10.97;83.13
76897;SHT30;65856;52.178;21.176;2023-04-01T00:24:14;10.99;83.10
76897;SHT30;65856;52.178;21.176;2023-04-01T00:26:45;11.01;83.05
76897;SHT30;65856;52.178;21.176;2023-04-01T00:29:16;11.02;82.97
76897;SHT30;65856;52.178;21.176;2023-04-01T00:31:46;11.03;82.88
76897;SHT30;65856;52.178;21.176;2023-04-01T00:34:17;11.04;82.79
76897;SHT30;65856;52.178;21.176;2023-04-01T00:36:48;11.03;82.70
76897;SHT30;65856;52.178;21.176;2023-04-01T00:39:20;11.04;82.70
76897;SHT30;65856;52.178;21.176;2023-04-01T00:41:51;11.04;82.69
76897;SHT30;65856;52.178;21.176;2023-04-01T00:44:23;11.01;82.70
76897;SHT30;65856;52.178;21.176;2023-04-01T00:46:57;11.00;82.70
76897;SHT30;65856;52.178;21.176;2023-04-01T00:49:29;10.99;82.64
76897;SHT30;65856;52.178;21.176;2023-04-01T00:52:05;11.01;82.62
76897;SHT30;65856;52.178;21.176;2023-04-01T00:54:42;11.00;82.62
76897;SHT30;65856;52.178;21.176;2023-04-01T00:57:17;10.97;82.72
76897;SHT30;65856;52.178;21.176;2023-04-01T00:59:55;10.93;82.78
76897;SHT30;65856;52.178;21.176;2023-04-01T01:02:26;10.93;82.81
76897;SHT30;65856;52.178;21.176;2023-04-01T01:04:59;10.93;82.83
76897;SHT30;65856;52.178;21.176;2023-04-01T01:07:31;10.92;82.83
76897;SHT30;65856;52.178;21.176;2023-04-01T01:10:14;10.91;82.87
76897;SHT30;65856;52.178;21.176;2023-04-01T01:12:52;10.91;82.90
76897;SHT30;65856;52.178;21.176;2023-04-01T01:15:37;10.92;82.90
76897;SHT30;65856;52.178;21.176;2023-04-01T01:18:16;10.91;82.89
76897;SHT30;65856;52.178;21.176;2023-04-01T01:21:07;10.92;82.90
76897;SHT30;65856;52.178;21.176;2023-04-01T01:24:10;10.93;82.89
76897;SHT30;65856;52.178;21.176;2023-04-01T01:27:08;10.91;82.82
76897;SHT30;65856;52.178;21.176;2023-04-01T01:29:57;10.88;82.85
76897;SHT30;65856;52.178;21.176;2023-04-01T01:32:44;10.85;82.88
76897;SHT30;65856;52.178;21.176;2023-04-01T01:35:34;10.81;82.80
76897;SHT30;65856;52.178;21.176;2023-04-01T01:38:11;10.77;82.80
76897;SHT30;65856;52.178;21.176;2023-04-01T01:40:49;10.72;82.80
76897;SHT30;65856;52.178;21.176;2023-04-01T01:43:25;10.70;82.80
76897;SHT30;65856;52.178;21.176;2023-04-01T01:46:00;10.68;82.80
76897;SHT30;65856;52.178;21.176;2023-04-01T01:48:37;10.65;82.79
76897;SHT30;65856;52.178;21.176;2023-04-01T01:51:09;10.65;82.76
76897;SHT30;65856;52.178;21.176;2023-04-01T01:53:40;10.63;82.70
76897;SHT30;65856;52.178;21.176;2023-04-01T01:56:11;10.59;82.70
76897;SHT30;65856;52.178;21.176;2023-04-01T01:58:44;10.58;82.72
76897;SHT30;65856;52.178;21.176;2023-04-01T02:01:18;10.59;82.65
76897;SHT30;65856;52.178;21.176;2023-04-01T02:03:54;10.59;82.62
76897;SHT30;65856;52.178;21.176;2023-04-01T02:06:27;10.59;82.64
76897;SHT30;65856;52.178;21.176;2023-04-01T02:09:03;10.57;82.61
76897;SHT30;65856;52.178;21.176;2023-04-01T02:11:39;10.59;82.66
76897;SHT30;65856;52.178;21.176;2023-04-01T02:14:16;10.60;82.60
76897;SHT30;65856;52.178;21.176;2023-04-01T02:16:51;10.60;82.52
76897;SHT30;65856;52.178;21.176;2023-04-01T02:19:26;10.60;82.50
76897;SHT30;65856;52.178;21.176;2023-04-01T02:22:03;10.61;82.50
76897;SHT30;65856;52.178;21.176;2023-04-01T02:24:39;10.62;82.47
76897;SHT30;65856;52.178;21.176;2023-04-01T02:27:12;10.66;82.40
76897;SHT30;65856;52.178;21.176;2023-04-01T02:29:43;10.66;82.36
76897;SHT30;65856;52.178;21.176;2023-04-01T02:32:13;10.67;82.29
76897;SHT30;65856;52.178;21.176;2023-04-01T02:34:46;10.68;82.19
76897;SHT30;65856;52.178;21.176;2023-04-01T02:37:17;10.68;82.14
76897;SHT30;65856;52.178;21.176;2023-04-01T02:39:48;10.68;82.11
76897;SHT30;65856;52.178;21.176;2023-04-01T02:42:19;10.69;82.19
76897;SHT30;65856;52.178;21.176;2023-04-01T02:44:50;10.69;82.24
76897;SHT30;65856;52.178;21.176;2023-04-01T02:47:20;10.71;82.30
76897;SHT30;65856;52.178;21.176;2023-04-01T02:49:51;10.72;82.31
76897;SHT30;65856;52.178;21.176;2023-04-01T02:52:24;10.72;82.31
76897;SHT30;65856;52.178;21.176;2023-04-01T02:54:56;10.73;82.35
76897;SHT30;65856;52.178;21.176;2023-04-01T02:57:27;10.75;82.38
76897;SHT30;65856;52.178;21.176;2023-04-01T02:59:58;10.76;82.36
76897;SHT30;65856;52.178;21.176;2023-04-01T03:02:29;10.76;82.24
76897;SHT30;65856;52.178;21.176;2023-04-01T03:04:59;10.74;82.15
76897;SHT30;65856;52.178;21.176;2023-04-01T03:07:30;10.73;82.05
76897;SHT30;65856;52.178;21.176;2023-04-01T03:10:01;10.70;82.03
76897;SHT30;65856;52.178;21.176;2023-04-01T03:12:33;10.67;81.86
76897;SHT30;65856;52.178;21.176;2023-04-01T03:15:02;10.62;81.73
76897;SHT30;65856;52.178;21.176;2023-04-01T03:17:37;10.61;81.74
76897;SHT30;65856;52.178;21.176;2023-04-01T03:20:09;10.60;81.72
76897;SHT30;65856;52.178;21.176;2023-04-01T03:22:41;10.60;81.69
76897;SHT30;65856;52.178;21.176;2023-04-01T03:25:12;10.59;81.70
76897;SHT30;65856;52.178;21.176;2023-04-01T03:27:42;10.59;81.72
76897;SHT30;65856;52.178;21.176;2023-04-01T03:30:13;10.58;81.81
76897;SHT30;65856;52.178;21.176;2023-04-01T03:32:44;10.58;81.89
76897;SHT30;65856;52.178;21.176;2023-04-01T03:35:15;10.56;81.99
76897;SHT30;65856;52.178;21.176;2023-04-01T03:37:46;10.57;82.01
76897;SHT30;65856;52.178;21.176;2023-04-01T03:40:17;10.59;82.10
76897;SHT30;65856;52.178;21.176;2023-04-01T03:42:48;10.60;82.04
76897;SHT30;65856;52.178;21.176;2023-04-01T03:45:19;10.60;82.04
76897;SHT30;65856;52.178;21.176;2023-04-01T03:47:50;10.57;82.09
76897;SHT30;65856;52.178;21.176;2023-04-01T03:50:21;10.57;82.03
76897;SHT30;65856;52.178;21.176;2023-04-01T03:52:52;10.56;81.97
76897;SHT30;65856;52.178;21.176;2023-04-01T03:55:23;10.54;81.98
76897;SHT30;65856;52.178;21.176;2023-04-01T03:57:53;10.51;81.91
76897;SHT30;65856;52.178;21.176;2023-04-01T04:00:24;10.48;81.86
76897;SHT30;65856;52.178;21.176;2023-04-01T04:02:54;10.45;81.90
76897;SHT30;65856;52.178;21.176;2023-04-01T04:05:26;10.45;81.84
76897;SHT30;65856;52.178;21.176;2023-04-01T04:07:57;10.43;81.83
76897;SHT30;65856;52.178;21.176;2023-04-01T04:10:28;10.42;81.87
76897;SHT30;65856;52.178;21.176;2023-04-01T04:12:58;10.40;81.80
76897;SHT30;65856;52.178;21.176;2023-04-01T04:15:29;10.38;81.80
76897;SHT30;65856;52.178;21.176;2023-04-01T04:17:59;10.38;81.82
76897;SHT30;65856;52.178;21.176;2023-04-01T04:20:30;10.37;81.90
76897;SHT30;65856;52.178;21.176;2023-04-01T04:23:02;10.36;81.94
76897;SHT30;65856;52.178;21.176;2023-04-01T04:25:32;10.34;82.05
76897;SHT30;65856;52.178;21.176;2023-04-01T04:28:03;10.34;82.10
76897;SHT30;65856;52.178;21.176;2023-04-01T04:30:34;10.32;82.09
76897;SHT30;65856;52.178;21.176;2023-04-01T04:33:04;10.30;82.15
76897;SHT30;65856;52.178;21.176;2023-04-01T04:35:35;10.30;82.19
76897;SHT30;65856;52.178;21.176;2023-04-01T04:38:06;10.31;82.20
76897;SHT30;65856;52.178;21.176;2023-04-01T04:40:37;10.33;82.16
76897;SHT30;65856;52.178;21.176;2023-04-01T04:43:08;10.35;82.11
76897;SHT30;65856;52.178;21.176;2023-04-01T04:45:42;10.36;82.11
76897;SHT30;65856;52.178;21.176;2023-04-01T04:48:14;10.37;82.15
76897;SHT30;65856;52.178;21.176;2023-04-01T04:50:46;10.38;82.20
76897;SHT30;65856;52.178;21.176;2023-04-01T04:53:18;10.37;82.23
76897;SHT30;65856;52.178;21.176;2023-04-01T04:55:49;10.38;82.31
76897;SHT30;65856;52.178;21.176;2023-04-01T04:58:20;10.38;82.40
76897;SHT30;65856;52.178;21.176;2023-04-01T05:00:51;10.38;82.43
76897;SHT30;65856;52.178;21.176;2023-04-01T05:03:21;10.40;82.50
76897;SHT30;65856;52.178;21.176;2023-04-01T05:05:53;10.42;82.59
76897;SHT30;65856;52.178;21.176;2023-04-01T05:08:24;10.42;82.60
76897;SHT30;65856;52.178;21.176;2023-04-01T05:10:54;10.45;82.60
76897;SHT30;65856;52.178;21.176;2023-04-01T05:13:25;10.48;82.63
76897;SHT30;65856;52.178;21.176;2023-04-01T05:15:56;10.53;82.68
76897;SHT30;65856;52.178;21.176;2023-04-01T05:18:27;10.55;82.67
76897;SHT30;65856;52.178;21.176;2023-04-01T05:20:57;10.56;82.69
76897;SHT30;65856;52.178;21.176;2023-04-01T05:23:28;10.59;82.78
76897;SHT30;65856;52.178;21.176;2023-04-01T05:26:01;10.65;82.80
76897;SHT30;65856;52.178;21.176;2023-04-01T05:28:34;10.69;82.73
76897;SHT30;65856;52.178;21.176;2023-04-01T05:31:05;10.73;82.70
76897;SHT30;65856;52.178;21.176;2023-04-01T05:33:37;10.76;82.67
76897;SHT30;65856;52.178;21.176;2023-04-01T05:36:07;10.79;82.61
76897;SHT30;65856;52.178;21.176;2023-04-01T05:38:40;10.83;82.60
76897;SHT30;65856;52.178;21.176;2023-04-01T05:41:13;10.87;82.64
76897;SHT30;65856;52.178;21.176;2023-04-01T05:43:44;10.90;82.59
76897;SHT30;65856;52.178;21.176;2023-04-01T05:46:14;10.87;82.53
76897;SHT30;65856;52.178;21.176;2023-04-01T05:48:45;10.88;82.60
76897;SHT30;65856;52.178;21.176;2023-04-01T05:51:16;10.89;82.54
76897;SHT30;65856;52.178;21.176;2023-04-01T05:53:46;10.90;82.50
76897;SHT30;65856;52.178;21.176;2023-04-01T05:56:17;10.92;82.33
76897;SHT30;65856;52.178;21.176;2023-04-01T05:58:50;10.94;82.33
76897;SHT30;65856;52.178;21.176;2023-04-01T06:01:22;10.99;82.45
76897;SHT30;65856;52.178;21.176;2023-04-01T06:03:52;11.06;82.52
76897;SHT30;65856;52.178;21.176;2023-04-01T06:06:24;11.08;82.36
76897;SHT30;65856;52.178;21.176;2023-04-01T06:08:58;11.09;82.18
76897;SHT30;65856;52.178;21.176;2023-04-01T06:11:40;11.11;82.11
76897;SHT30;65856;52.178;21.176;2023-04-01T06:14:35;11.17;82.18
76897;SHT30;65856;52.178;21.176;2023-04-01T06:17:21;11.22;82.20
76897;SHT30;65856;52.178;21.176;2023-04-01T06:20:20;11.28;82.17
76897;SHT30;65856;52.178;21.176;2023-04-01T06:23:10;11.33;82.12
76897;SHT30;65856;52.178;21.176;2023-04-01T06:26:00;11.37;82.00
76897;SHT30;65856;52.178;21.176;2023-04-01T06:28:48;11.42;81.82
76897;SHT30;65856;52.178;21.176;2023-04-01T06:31:46;11.45;81.59
76897;SHT30;65856;52.178;21.176;2023-04-01T06:34:56;11.48;81.46
76897;SHT30;65856;52.178;21.176;2023-04-01T06:37:51;11.52;81.45
76897;SHT30;65856;52.178;21.176;2023-04-01T06:43:57;11.60;81.20
76897;SHT30;65856;52.178;21.176;2023-04-01T06:46:43;11.65;81.13
76897;SHT30;65856;52.178;21.176;2023-04-01T06:49:30;11.68;80.94
76897;SHT30;65856;52.178;21.176;2023-04-01T06:52:17;11.68;80.86
76897;SHT30;65856;52.178;21.176;2023-04-01T06:55:00;11.70;80.82
76897;SHT30;65856;52.178;21.176;2023-04-01T06:57:48;11.74;80.76
76897;SHT30;65856;52.178;21.176;2023-04-01T07:00:25;11.81;80.69
76897;SHT30;65856;52.178;21.176;2023-04-01T07:03:02;11.88;80.61
76897;SHT30;65856;52.178;21.176;2023-04-01T07:05:46;11.93;80.53
76897;SHT30;65856;52.178;21.176;2023-04-01T07:08:17;11.98;80.50
76897;SHT30;65856;52.178;21.176;2023-04-01T07:10:53;12.04;80.41
76897;SHT30;65856;52.178;21.176;2023-04-01T07:13:31;12.09;80.17
76897;SHT30;65856;52.178;21.176;2023-04-01T07:16:11;12.15;80.02
76897;SHT30;65856;52.178;21.176;2023-04-01T07:18:47;12.18;79.74
76897;SHT30;65856;52.178;21.176;2023-04-01T07:21:25;12.18;79.68
76897;SHT30;65856;52.178;21.176;2023-04-01T07:24:04;12.20;79.45
76897;SHT30;65856;52.178;21.176;2023-04-01T07:26:43;12.27;79.43
76897;SHT30;65856;52.178;21.176;2023-04-01T07:29:14;12.36;79.50
76897;SHT30;65856;52.178;21.176;2023-04-01T07:31:52;12.42;79.28
76897;SHT30;65856;52.178;21.176;2023-04-01T07:34:44;12.41;78.86
76897;SHT30;65856;52.178;21.176;2023-04-01T07:37:30;12.40;78.73
76897;SHT30;65856;52.178;21.176;2023-04-01T07:40:14;12.37;78.65
76897;SHT30;65856;52.178;21.176;2023-04-01T07:43:00;12.34;78.33
76897;SHT30;65856;52.178;21.176;2023-04-01T07:45:46;12.29;78.30
76897;SHT30;65856;52.178;21.176;2023-04-01T07:48:31;12.26;78.08
76897;SHT30;65856;52.178;21.176;2023-04-01T07:51:13;12.25;77.62
76897;SHT30;65856;52.178;21.176;2023-04-01T07:53:49;12.26;77.57
76897;SHT30;65856;52.178;21.176;2023-04-01T07:56:32;12.29;77.42
76897;SHT30;65856;52.178;21.176;2023-04-01T07:59:14;12.32;77.49
76897;SHT30;65856;52.178;21.176;2023-04-01T08:01:57;12.35;77.49
76897;SHT30;65856;52.178;21.176;2023-04-01T08:04:44;12.48;77.54
76897;SHT30;65856;52.178;21.176;2023-04-01T08:07:31;12.60;77.59
76897;SHT30;65856;52.178;21.176;2023-04-01T08:10:14;12.70;77.54
76897;SHT30;65856;52.178;21.176;2023-04-01T08:12:56;12.74;77.21
76897;SHT30;65856;52.178;21.176;2023-04-01T08:15:41;12.80;77.32
76897;SHT30;65856;52.178;21.176;2023-04-01T08:18:26;12.82;77.35
76897;SHT30;65856;52.178;21.176;2023-04-01T08:21:07;12.85;77.12
76897;SHT30;65856;52.178;21.176;2023-04-01T08:23:46;12.85;76.81
76897;SHT30;65856;52.178;21.176;2023-04-01T08:26:26;12.85;76.76
76897;SHT30;65856;52.178;21.176;2023-04-01T08:29:07;12.82;76.41
76897;SHT30;65856;52.178;21.176;2023-04-01T08:31:45;12.76;76.22
76897;SHT30;65856;52.178;21.176;2023-04-01T08:34:25;12.69;76.28
76897;SHT30;65856;52.178;21.176;2023-04-01T08:37:03;12.72;76.26
76897;SHT30;65856;52.178;21.176;2023-04-01T08:39:40;12.76;76.20
76897;SHT30;65856;52.178;21.176;2023-04-01T08:42:22;12.82;76.05
76897;SHT30;65856;52.178;21.176;2023-04-01T08:45:29;12.88;75.54
76897;SHT30;65856;52.178;21.176;2023-04-01T08:48:22;12.85;75.30
76897;SHT30;65856;52.178;21.176;2023-04-01T08:54:29;12.89;75.39
76897;SHT30;65856;52.178;21.176;2023-04-01T08:57:20;12.97;75.42
76897;SHT30;65856;52.178;21.176;2023-04-01T09:00:09;13.08;75.38
76897;SHT30;65856;52.178;21.176;2023-04-01T09:06:00;13.29;75.23
76897;SHT30;65856;52.178;21.176;2023-04-01T09:08:55;13.36;75.10
76897;SHT30;65856;52.178;21.176;2023-04-01T09:12:14;13.36;74.61
76897;SHT30;65856;52.178;21.176;2023-04-01T09:15:03;13.38;74.66
76897;SHT30;65856;52.178;21.176;2023-04-01T09:18:00;13.38;74.54
76897;SHT30;65856;52.178;21.176;2023-04-01T09:21:27;13.35;74.29
76897;SHT30;65856;52.178;21.176;2023-04-01T09:24:13;13.29;74.46
76897;SHT30;65856;52.178;21.176;2023-04-01T09:27:07;13.24;74.50
76897;SHT30;65856;52.178;21.176;2023-04-01T09:33:21;13.16;74.78
76897;SHT30;65856;52.178;21.176;2023-04-01T09:36:35;13.26;74.83
76897;SHT30;65856;52.178;21.176;2023-04-01T09:39:32;13.28;74.47
76897;SHT30;65856;52.178;21.176;2023-04-01T09:42:25;13.31;74.31
76897;SHT30;65856;52.178;21.176;2023-04-01T09:45:16;13.34;73.96
76897;SHT30;65856;52.178;21.176;2023-04-01T09:48:13;13.37;73.78
76897;SHT30;65856;52.178;21.176;2023-04-01T09:51:03;13.37;73.27
76897;SHT30;65856;52.178;21.176;2023-04-01T09:53:52;13.32;72.75
76897;SHT30;65856;52.178;21.176;2023-04-01T09:56:50;13.26;72.74
76897;SHT30;65856;52.178;21.176;2023-04-01T09:59:48;13.19;72.72
76897;SHT30;65856;52.178;21.176;2023-04-01T10:09:32;13.02;73.31
76897;SHT30;65856;52.178;21.176;2023-04-01T10:12:57;12.99;73.51
76897;SHT30;65856;52.178;21.176;2023-04-01T10:16:15;12.98;73.86
76897;SHT30;65856;52.178;21.176;2023-04-01T10:22:20;12.73;74.77
76897;SHT30;65856;52.178;21.176;2023-04-01T10:25:30;12.59;75.55
76897;SHT30;65856;52.178;21.176;2023-04-01T10:28:31;12.52;75.83
76897;SHT30;65856;52.178;21.176;2023-04-01T10:31:34;12.44;76.19
76897;SHT30;65856;52.178;21.176;2023-04-01T10:37:42;12.34;76.46
76897;SHT30;65856;52.178;21.176;2023-04-01T10:40:54;12.30;76.84
76897;SHT30;65856;52.178;21.176;2023-04-01T10:47:12;12.29;77.39
76897;SHT30;65856;52.178;21.176;2023-04-01T10:50:22;12.27;77.23
76897;SHT30;65856;52.178;21.176;2023-04-01T10:56:42;12.37;77.16
76897;SHT30;65856;52.178;21.176;2023-04-01T11:09:27;12.48;76.80
76897;SHT30;65856;52.178;21.176;2023-04-01T11:12:46;12.52;76.56
76897;SHT30;65856;52.178;21.176;2023-04-01T11:16:10;12.60;76.42
76897;SHT30;65856;52.178;21.176;2023-04-01T11:26:01;13.05;76.23
76897;SHT30;65856;52.178;21.176;2023-04-01T11:28:53;13.13;75.94
76897;SHT30;65856;52.178;21.176;2023-04-01T11:31:52;13.21;75.46
76897;SHT30;65856;52.178;21.176;2023-04-01T11:34:41;13.27;75.33
76897;SHT30;65856;52.178;21.176;2023-04-01T11:37:31;13.36;75.34
76897;SHT30;65856;52.178;21.176;2023-04-01T11:40:17;13.44;74.89
76897;SHT30;65856;52.178;21.176;2023-04-01T11:43:01;13.51;74.14
76897;SHT30;65856;52.178;21.176;2023-04-01T11:45:42;13.55;73.76
76897;SHT30;65856;52.178;21.176;2023-04-01T11:48:26;13.60;73.55
76897;SHT30;65856;52.178;21.176;2023-04-01T11:51:31;13.68;73.43
76897;SHT30;65856;52.178;21.176;2023-04-01T11:54:26;13.73;72.83
76897;SHT30;65856;52.178;21.176;2023-04-01T11:57:28;13.73;72.27
76897;SHT30;65856;52.178;21.176;2023-04-01T12:00:43;13.74;72.13
76897;SHT30;65856;52.178;21.176;2023-04-01T12:03:46;13.74;71.75
76897;SHT30;65856;52.178;21.176;2023-04-01T12:06:40;13.72;71.81
76897;SHT30;65856;52.178;21.176;2023-04-01T12:09:21;13.71;71.98
76897;SHT30;65856;52.178;21.176;2023-04-01T12:12:08;13.73;72.26
76897;SHT30;65856;52.178;21.176;2023-04-01T12:14:53;13.76;72.74
76897;SHT30;65856;52.178;21.176;2023-04-01T12:17:36;13.80;73.33
76897;SHT30;65856;52.178;21.176;2023-04-01T12:23:13;13.88;72.79
76897;SHT30;65856;52.178;21.176;2023-04-01T12:26:15;13.91;72.65
76897;SHT30;65856;52.178;21.176;2023-04-01T12:29:03;13.85;71.93
76897;SHT30;65856;52.178;21.176;2023-04-01T12:31:58;13.84;72.75
76897;SHT30;65856;52.178;21.176;2023-04-01T12:34:43;13.82;72.82
76897;SHT30;65856;52.178;21.176;2023-04-01T12:37:31;13.83;72.86
76897;SHT30;65856;52.178;21.176;2023-04-01T12:40:20;13.84;73.00
76897;SHT30;65856;52.178;21.176;2023-04-01T12:43:09;13.86;73.31
76897;SHT30;65856;52.178;21.176;2023-04-01T12:46:02;13.88;73.23
76897;SHT30;65856;52.178;21.176;2023-04-01T12:54:48;13.87;73.65
76897;SHT30;65856;52.178;21.176;2023-04-01T12:57:56;13.89;73.62
76897;SHT30;65856;52.178;21.176;2023-04-01T13:01:04;13.92;73.48
76897;SHT30;65856;52.178;21.176;2023-04-01T13:07:11;14.03;73.41
76897;SHT30;65856;52.178;21.176;2023-04-01T13:10:02;14.05;73.08
76897;SHT30;65856;52.178;21.176;2023-04-01T13:12:54;14.09;72.90
76897;SHT30;65856;52.178;21.176;2023-04-01T13:15:47;14.11;72.21
76897;SHT30;65856;52.178;21.176;2023-04-01T13:18:24;14.10;71.45
76897;SHT30;65856;52.178;21.176;2023-04-01T13:21:08;14.06;70.41
76897;SHT30;65856;52.178;21.176;2023-04-01T13:23:51;14.06;69.74
76897;SHT30;65856;52.178;21.176;2023-04-01T13:26:34;14.03;69.36
76897;SHT30;65856;52.178;21.176;2023-04-01T13:29:19;14.04;69.79
76897;SHT30;65856;52.178;21.176;2023-04-01T13:32:02;14.08;69.50
76897;SHT30;65856;52.178;21.176;2023-04-01T13:34:50;14.11;69.24
76897;SHT30;65856;52.178;21.176;2023-04-01T13:37:42;14.15;68.87
76897;SHT30;65856;52.178;21.176;2023-04-01T13:40:34;14.17;68.78
76897;SHT30;65856;52.178;21.176;2023-04-01T13:43:16;14.17;69.01
76897;SHT30;65856;52.178;21.176;2023-04-01T13:46:05;14.18;68.78
76897;SHT30;65856;52.178;21.176;2023-04-01T13:55:20;14.11;68.66
76897;SHT30;65856;52.178;21.176;2023-04-01T13:58:19;14.09;68.42
76897;SHT30;65856;52.178;21.176;2023-04-01T14:01:07;14.04;68.66
76897;SHT30;65856;52.178;21.176;2023-04-01T14:03:49;14.01;68.81
76897;SHT30;65856;52.178;21.176;2023-04-01T14:06:40;14.01;68.75
76897;SHT30;65856;52.178;21.176;2023-04-01T14:09:28;13.97;68.33
76897;SHT30;65856;52.178;21.176;2023-04-01T14:12:22;13.86;68.43
76897;SHT30;65856;52.178;21.176;2023-04-01T14:15:14;13.75;68.88
76897;SHT30;65856;52.178;21.176;2023-04-01T14:18:01;13.57;69.67
76897;SHT30;65856;52.178;21.176;2023-04-01T14:20:49;13.48;70.64
76897;SHT30;65856;52.178;21.176;2023-04-01T14:30:02;13.20;73.32
76897;SHT30;65856;52.178;21.176;2023-04-01T14:33:03;13.15;73.72
76897;SHT30;65856;52.178;21.176;2023-04-01T14:35:49;13.12;74.21
76897;SHT30;65856;52.178;21.176;2023-04-01T14:38:45;13.06;74.55
76897;SHT30;65856;52.178;21.176;2023-04-01T14:41:29;13.04;74.85
76897;SHT30;65856;52.178;21.176;2023-04-01T14:47:29;12.95;75.14
76897;SHT30;65856;52.178;21.176;2023-04-01T14:50:15;12.92;75.18
76897;SHT30;65856;52.178;21.176;2023-04-01T14:52:52;12.85;74.99
76897;SHT30;65856;52.178;21.176;2023-04-01T14:55:46;12.78;75.15
76897;SHT30;65856;52.178;21.176;2023-04-01T14:58:20;12.73;74.95
76897;SHT30;65856;52.178;21.176;2023-04-01T15:00:56;12.70;75.16
76897;SHT30;65856;52.178;21.176;2023-04-01T15:03:40;12.69;75.22
76897;SHT30;65856;52.178;21.176;2023-04-01T15:06:34;12.68;75.24
76897;SHT30;65856;52.178;21.176;2023-04-01T15:09:34;12.60;75.14
76897;SHT30;65856;52.178;21.176;2023-04-01T15:12:19;12.50;75.22
76897;SHT30;65856;52.178;21.176;2023-04-01T15:15:11;12.43;75.27
76897;SHT30;65856;52.178;21.176;2023-04-01T15:18:01;12.35;75.11
76897;SHT30;65856;52.178;21.176;2023-04-01T15:20:47;12.28;75.06
76897;SHT30;65856;52.178;21.176;2023-04-01T15:23:39;12.30;75.04
76897;SHT30;65856;52.178;21.176;2023-04-01T15:26:31;12.28;75.11
76897;SHT30;65856;52.178;21.176;2023-04-01T15:29:26;12.28;75.32
76897;SHT30;65856;52.178;21.176;2023-04-01T15:32:15;12.16;75.64
76897;SHT30;65856;52.178;21.176;2023-04-01T15:34:55;12.06;76.02
76897;SHT30;65856;52.178;21.176;2023-04-01T15:37:42;12.01;76.45
76897;SHT30;65856;52.178;21.176;2023-04-01T15:40:24;11.98;76.77
76897;SHT30;65856;52.178;21.176;2023-04-01T15:43:07;11.92;77.05
76897;SHT30;65856;52.178;21.176;2023-04-01T15:46:08;11.85;77.27
76897;SHT30;65856;52.178;21.176;2023-04-01T15:48:55;11.73;77.69
76897;SHT30;65856;52.178;21.176;2023-04-01T15:51:43;11.65;78.03
76897;SHT30;65856;52.178;21.176;2023-04-01T15:57:50;11.43;78.32
76897;SHT30;65856;52.178;21.176;2023-04-01T16:00:46;11.30;78.60
76897;SHT30;65856;52.178;21.176;2023-04-01T16:03:33;11.25;78.95
76897;SHT30;65856;52.178;21.176;2023-04-01T16:09:27;11.19;79.23
76897;SHT30;65856;52.178;21.176;2023-04-01T16:12:18;11.19;79.21
76897;SHT30;65856;52.178;21.176;2023-04-01T16:15:08;11.15;79.24
76897;SHT30;65856;52.178;21.176;2023-04-01T16:17:59;11.10;79.35
76897;SHT30;65856;52.178;21.176;2023-04-01T16:20:49;11.08;79.39
76897;SHT30;65856;52.178;21.176;2023-04-01T16:23:29;11.04;79.32
76897;SHT30;65856;52.178;21.176;2023-04-01T16:26:09;10.98;79.07
76897;SHT30;65856;52.178;21.176;2023-04-01T16:28:53;10.89;78.82
76897;SHT30;65856;52.178;21.176;2023-04-01T16:31:38;10.81;78.67
76897;SHT30;65856;52.178;21.176;2023-04-01T16:34:19;10.75;78.43
76897;SHT30;65856;52.178;21.176;2023-04-01T16:37:00;10.70;78.32
76897;SHT30;65856;52.178;21.176;2023-04-01T16:39:43;10.66;78.35
76897;SHT30;65856;52.178;21.176;2023-04-01T16:42:24;10.65;78.23
76897;SHT30;65856;52.178;21.176;2023-04-01T16:45:06;10.63;78.29
76897;SHT30;65856;52.178;21.176;2023-04-01T16:47:54;10.64;78.28
76897;SHT30;65856;52.178;21.176;2023-04-01T16:50:41;10.65;78.34
76897;SHT30;65856;52.178;21.176;2023-04-01T16:53:25;10.66;78.19
76897;SHT30;65856;52.178;21.176;2023-04-01T16:56:10;10.65;78.28
76897;SHT30;65856;52.178;21.176;2023-04-01T16:58:55;10.64;78.34
76897;SHT30;65856;52.178;21.176;2023-04-01T17:01:39;10.61;78.52
76897;SHT30;65856;52.178;21.176;2023-04-01T17:04:21;10.56;78.56
76897;SHT30;65856;52.178;21.176;2023-04-01T17:07:04;10.53;78.66
76897;SHT30;65856;52.178;21.176;2023-04-01T17:09:49;10.48;78.64
76897;SHT30;65856;52.178;21.176;2023-04-01T17:12:34;10.45;78.66
76897;SHT30;65856;52.178;21.176;2023-04-01T17:15:17;10.44;78.62
76897;SHT30;65856;52.178;21.176;2023-04-01T17:18:01;10.44;78.72
76897;SHT30;65856;52.178;21.176;2023-04-01T17:20:42;10.41;78.67
76897;SHT30;65856;52.178;21.176;2023-04-01T17:23:20;10.38;78.61
76897;SHT30;65856;52.178;21.176;2023-04-01T17:26:06;10.35;78.50
76897;SHT30;65856;52.178;21.176;2023-04-01T17:28:56;10.34;78.44
76897;SHT30;65856;52.178;21.176;2023-04-01T17:31:41;10.32;78.24
76897;SHT30;65856;52.178;21.176;2023-04-01T17:34:30;10.31;78.13
76897;SHT30;65856;52.178;21.176;2023-04-01T17:37:24;10.30;78.09
76897;SHT30;65856;52.178;21.176;2023-04-01T17:40:24;10.28;78.10
76897;SHT30;65856;52.178;21.176;2023-04-01T17:43:10;10.28;78.11
76897;SHT30;65856;52.178;21.176;2023-04-01T17:45:55;10.28;78.13
76897;SHT30;65856;52.178;21.176;2023-04-01T17:48:38;10.31;78.18
76897;SHT30;65856;52.178;21.176;2023-04-01T17:51:19;10.30;78.10
76897;SHT30;65856;52.178;21.176;2023-04-01T17:54:03;10.32;78.16
76897;SHT30;65856;52.178;21.176;2023-04-01T17:56:52;10.31;78.12
76897;SHT30;65856;52.178;21.176;2023-04-01T17:59:49;10.28;78.10
76897;SHT30;65856;52.178;21.176;2023-04-01T18:02:31;10.26;78.14
76897;SHT30;65856;52.178;21.176;2023-04-01T18:05:20;10.26;78.25
76897;SHT30;65856;52.178;21.176;2023-04-01T18:08:16;10.24;78.24
76897;SHT30;65856;52.178;21.176;2023-04-01T18:11:08;10.22;78.31
76897;SHT30;65856;52.178;21.176;2023-04-01T18:13:56;10.19;78.37
76897;SHT30;65856;52.178;21.176;2023-04-01T18:20:39;10.14;78.53